Weather observations for the past three days for
Okmulgee, Okmulgee Municipal Airport
Imperial (Metric)
Date Time (cdt) Wind (mph) Vis. (mi.) Weather Sky Cond. Temperature (ºF) Relative Humidity Wind Chill (°F) Heat Index (°F) Pressure Precipitation (in)
Air Dwpt 6 hour altimeter (in) sea level (mb) 1 hr 3 hr 6 hr
Max. Min.
07 22:35 Calm 10.00 Fair CLR 52 45.7 79% 29.97 0.0
07 22:15 Calm 10.00 Fair CLR 55.8 45.7 69% 29.97 0.0
07 21:55 Calm 10.00 Fair CLR 58.1 45 62% 29.97 0.0
07 21:35 Calm 10.00 Fair CLR 58.6 44.6 60% 29.96 0.0
07 21:15 S 3 10.00 Fair CLR 61 44.2 54% 29.96 0.0
07 20:55 Calm 10.00 Fair CLR 61.7 44.6 54% 29.95 0.0
07 20:35 S 3 10.00 Fair CLR 63 45 52% 29.95 0.0
07 20:15 S 5 10.00 Fair CLR 64.6 44.6 48% 29.95 0.0
07 19:55 S 6 10.00 Fair CLR 66.7 44.6 45% 29.94 0.0
07 19:35 S 3 10.00 Fair CLR 69.6 43.2 39% 29.94 0.0
07 19:15 S 6 10.00 Fair CLR 71.1 41.4 34% 29.94 0.0
07 18:55 Calm 10.00 Fair CLR 71.6 40.6 73.6 67.1 33% 29.95 0.0
07 18:35 SW 6 10.00 Fair CLR 72.1 40.8 32% 29.95 0.0
07 18:15 SW 6 10.00 Fair CLR 72.7 41 32% 29.96 0.0
07 17:55 S 3 10.00 Fair CLR 72.5 40.1 31% 29.96 0.0
07 17:35 W 3 10.00 Fair CLR 72.7 40.6 31% 29.96 0.0
07 17:15 W 6 10.00 Fair CLR 72.7 40.6 31% 29.96 0.0
07 16:55 SW 6 10.00 Fair CLR 72.1 41.2 33% 29.97 0.0
07 16:35 SW 3 10.00 Fair CLR 72 40.6 32% 29.97 0.0
07 16:15 Calm 10.00 Fair CLR 71.8 41.4 33% 29.98 0.0
07 15:55 S 8 10.00 Fair CLR 71.8 42.1 34% 29.99 0.0
07 15:35 S 8 10.00 Fair CLR 72.3 41.7 33% 30 0.0
07 14:55 SW 7 10.00 Fair CLR 70.9 41.9 35% 30.01 0.0
07 14:35 SW 9 10.00 Fair CLR 70.3 41.2 35% 30.02 0.0
07 14:15 W 10 10.00 Fair CLR 69.8 40.1 34% 30.03 0.0
07 13:55 Calm 10.00 Fair CLR 69.1 39.2 34% 30.04 0.0
07 13:35 NW 7 10.00 Fair CLR 68.5 40.6 36% 30.05 0.0
07 13:15 S 12 10.00 Fair CLR 67.5 39.4 36% 30.05 0.0
07 12:55 SW 6 10.00 Fair CLR 67.3 39.9 68.2 42.3 37% 30.06 0.0
07 12:35 W 7 10.00 Fair CLR 67.1 38.7 35% 30.07 0.0
07 12:15 W 6 10.00 Fair CLR 66.9 41 39% 30.08 0.0
07 11:55 S 6 10.00 Fair CLR 66 41 40% 30.09 0.0
07 11:35 SW 3 10.00 Fair CLR 64.9 38.1 37% 30.1 0.0
07 11:15 SW 5 10.00 Fair CLR 65.1 39.7 39% 30.1 0.0
07 10:55 S 5 10.00 Fair CLR 63.7 39.9 42% 30.11 0.0
07 10:35 Calm 10.00 Fair CLR 62.6 39 42% 30.11 0.0
07 10:15 S 6 10.00 Fair CLR 62.1 39 43% 30.12 0.0
07 09:55 S 3 10.00 Fair CLR 60.6 41.2 49% 30.13 0.0
07 09:35 S 3 10.00 Fair CLR 59 41.2 52% 30.13 0.0
07 09:15 SW 3 10.00 Fair CLR 57.7 42.3 57% 30.13 0.0
07 08:55 S 3 10.00 Fair CLR 54.9 41 60% 30.13 0.0
07 08:35 Calm 10.00 Fair CLR 52.9 42.8 69% 30.12 0.0
07 08:15 Calm 10.00 Fair CLR 50.4 44.8 81% 30.12 0.0
07 07:55 Calm 10.00 Fair CLR 47.7 43 84% 30.12 0.0
07 07:35 Calm 10.00 Fair CLR 45.1 43.7 95% 30.11 0.0
07 07:15 Calm 10.00 Fair CLR 43.7 43.7 100% 30.11 0.0
07 06:55 Calm 10.00 Fair CLR 41.9 41.9 48.2 40.6 100% 30.11 0.0
07 06:35 Calm 10.00 Partly Cloudy SCT110 41.2 41.2 100% 30.1 0.0
07 06:15 Calm 10.00 Partly Cloudy SCT110 41.4 41 99% 30.1 0.0
07 05:55 Calm 10.00 Fair CLR 41.4 40.3 96% 30.09 0.0
07 05:35 Calm 10.00 Fair CLR 41.9 40.1 93% 30.09 0.0
07 05:15 Calm 10.00 Fair CLR 42.4 39.4 89% 30.09 0.0
07 04:55 Calm 10.00 Fair CLR 42.4 39.4 89% 30.09 0.0
07 04:35 Calm 10.00 Fair CLR 42.6 39.4 88% 30.09 0.0
07 04:15 Calm 10.00 Fair CLR 42.8 41 93% 30.09 0.0
07 03:55 N 3 10.00 Fair CLR 42.3 41 95% 30.09 0.0
07 03:35 N 3 10.00 Fair CLR 43 41.2 93% 30.09 0.0
07 03:15 Calm 10.00 Fair CLR 43.5 40.3 88% 30.08 0.0
07 02:55 E 3 10.00 Fair CLR 43.9 41.9 93% 30.07 0.0
07 02:35 Calm 10.00 Fair CLR 43.3 41.4 93% 30.09 0.0
07 02:15 Calm 10.00 Fair CLR 44.1 40.1 86% 30.1 0.0
07 01:55 Calm 10.00 Fair CLR 45.1 40.5 84% 30.1 0.0
07 01:35 N 3 10.00 Fair CLR 48 39.7 73% 30.1 0.0
07 01:15 N 3 10.00 Fair CLR 46.2 39.6 78% 30.09 0.0
07 00:55 N 5 10.00 Fair CLR 46.4 40.3 62.8 45.7 79% 45 30.1 0.0
07 00:35 NE 5 10.00 Fair CLR 47.5 40.1 76% 46 30.08 0.0
06 23:55 N 5 10.00 Fair CLR 47.8 39.7 74% 46 30.09 0.0
06 23:35 N 5 10.00 Fair CLR 48.4 40.1 73% 47 30.08 0.0
06 23:15 N 5 10.00 Fair CLR 50.2 40.3 69% 30.08 0.0
06 22:55 N 5 10.00 Fair CLR 49.8 40.3 70% 49 30.08 0.0
06 22:35 N 5 10.00 Fair CLR 49.6 41 72% 48 30.07 0.0
06 22:15 N 5 10.00 Fair CLR 50.5 42.1 73% 30.07 0.0
06 21:55 N 3 10.00 Fair CLR 51.4 42.3 71% 30.06 0.0
06 21:35 N 5 10.00 Fair CLR 51.8 42.8 72% 30.06 0.0
06 21:15 N 5 10.00 Fair CLR 52.7 42.8 69% 30.05 0.0
06 20:55 N 5 10.00 Fair CLR 53.1 43.2 69% 30.04 0.0
06 20:35 N 3 10.00 Fair CLR 54.5 43.2 66% 30.04 0.0
06 20:15 N 3 10.00 Fair CLR 55.6 42.6 62% 30.03 0.0
06 19:55 NE 5 10.00 Partly Cloudy SCT050 57.6 41.9 56% 30.02 0.0
06 19:35 NE 6 10.00 Partly Cloudy SCT050 60.8 41.4 49% 30.02 0.0
06 19:15 NE 7 10.00 Fair CLR 61.9 40.5 46% 30.01 0.0
06 18:55 NE 10 G 17 10.00 Partly Cloudy SCT055 62.8 40.3 65.5 57 44% 30.01 0.0
06 18:35 NE 8 10.00 Overcast OVC055 61.7 40.6 46% 30.01 0.0
06 18:15 N 10 G 16 10.00 Overcast OVC055 62.8 41.9 47% 30.01 0.0
06 17:55 NE 10 10.00 Overcast OVC049 62.8 40.5 44% 30.01 0.0
06 17:35 NE 12 10.00 Overcast OVC049 62.1 41.9 48% 30.01 0.0
06 17:15 NE 8 10.00 Overcast OVC047 64.4 42.8 46% 30 0.0
06 16:55 N 9 10.00 Overcast OVC049 63.1 43.3 49% 29.99 0.0
06 16:35 N 16 G 21 10.00 Overcast OVC049 63.5 43.3 48% 29.99 0.0
06 16:15 NE 16 G 20 10.00 Mostly Cloudy BKN047 63.9 42.3 45% 29.99 0.0
06 15:55 NE 16 G 20 10.00 Mostly Cloudy BKN045 63.7 42.6 46% 29.99 0.0
06 15:35 NE 14 G 20 10.00 Mostly Cloudy BKN045 BKN050 63.5 43.2 48% 29.98 0.0
06 15:15 NE 14 G 21 10.00 Partly Cloudy SCT043 SCT050 63.3 43.2 48% 30 0.0
06 14:55 N 14 G 20 10.00 Partly Cloudy SCT040 SCT048 64.2 43.7 47% 30.01 0.0
06 14:35 NE 10 G 17 10.00 Partly Cloudy SCT040 63 44.2 51% 30.02 0.0
06 14:15 NE 10 G 20 10.00 Fair CLR 63.1 45.1 52% 30.01 0.0
06 13:55 NE 9 10.00 Partly Cloudy SCT043 SCT100 SCT110 60.8 44.2 55% 30.03 0.0
06 13:35 E 8 10.00 Partly Cloudy SCT120 58.6 42.8 56% 30.04 0.0
06 13:15 E 12 G 16 10.00 Partly Cloudy SCT046 59 42.1 54% 30.04 0.0
06 12:55 E 8 10.00 Partly Cloudy SCT046 56.8 41.9 57.2 49.3 58% 30.05 0.0
06 12:35 NE 12 10.00 Partly Cloudy SCT044 55.8 40.6 57% 30.06 0.0
06 12:15 NE 12 10.00 Overcast OVC044 57.2 41.5 56% 30.06 0.0
06 11:55 NE 12 10.00 Overcast OVC042 54.9 40.5 59% 30.08 0.0
06 11:35 E 13 10.00 Light Drizzle OVC038 55 42.1 62% 30.09 0.0
06 11:15 NE 12 10.00 Partly Cloudy SCT036 54.9 41.4 61% 30.08 0.0
06 10:55 NE 10 10.00 Partly Cloudy SCT024 53.4 41.5 64% 30.06 0.0
06 10:35 NE 13 G 16 10.00 Partly Cloudy SCT024 52.5 41.9 67% 30.05 0.0
06 10:15 NE 12 G 16 10.00 Partly Cloudy SCT024 52.5 41.9 67% 30.04 0.0
06 09:55 NE 14 G 23 10.00 Partly Cloudy SCT024 SCT120 51.8 41.4 68% 30.03 0.0
06 09:35 NE 13 G 21 10.00 Fair CLR 51.8 41.9 69% 30.03 0.0
06 09:15 NE 16 G 24 10.00 Fair CLR 50.9 41.4 70% 30.03 0.0
06 08:55 NE 17 G 24 10.00 Partly Cloudy SCT021 50.2 41.5 72% 30.03 0.0
06 08:35 NE 18 G 23 10.00 Partly Cloudy SCT021 50 41.2 72% 44 30.03 0.0
06 08:15 NE 21 G 28 10.00 Partly Cloudy and Breezy SCT023 SCT120 49.6 41 72% 44 30.01 0.0
06 07:55 NE 17 G 23 10.00 Fair CLR 49.6 40.8 72% 44 30.02 0.0
06 07:35 NE 17 10.00 Fair CLR 49.5 40.3 71% 44 30.01 0.0
06 07:15 NE 15 G 21 10.00 Fair CLR 49.5 40.1 70% 44 30 0.0
06 06:55 N 13 G 18 10.00 Fair CLR 49.3 40.6 50.9 49.3 72% 45 30.01 0.0
06 06:35 N 15 G 18 10.00 Partly Cloudy SCT040 49.5 40.5 71% 44 29.99 0.0
06 06:15 N 15 G 21 10.00 Overcast OVC040 50 40.8 71% 45 29.98 0.0
06 05:55 N 16 10.00 Overcast OVC038 50 40.6 70% 45 29.98 0.0
06 05:35 N 14 10.00 Overcast OVC038 50.2 41 71% 29.96 0.0
06 05:15 N 17 G 21 10.00 Overcast OVC038 50.4 40.8 70% 29.96 0.0
06 04:55 N 14 G 17 10.00 Overcast OVC036 50.4 41.2 71% 29.96 0.0
06 04:35 N 13 G 17 10.00 Overcast OVC034 50.5 41.4 71% 29.94 0.0
06 04:15 N 12 10.00 Overcast OVC032 50.5 41.9 72% 29.93 0.0
06 03:55 N 12 10.00 Overcast OVC032 50.5 41.9 72% 29.91 0.0
06 03:35 NE 12 G 17 10.00 Overcast OVC030 50.5 41.9 72% 29.9 0.0
06 03:15 NE 15 G 21 10.00 Overcast OVC030 50.5 41.7 72% 29.89 0.0
06 02:55 NE 14 10.00 Overcast OVC030 50.5 41.5 71% 29.9 0.0
06 02:35 NE 15 G 21 10.00 Overcast OVC028 50.5 41.4 71% 29.9 0.0
06 02:15 NE 16 G 20 10.00 Overcast OVC028 50.5 41.5 71% 29.9 0.0
06 01:55 NE 16 10.00 Overcast OVC028 50.5 41.9 72% 29.9 0.0
06 01:35 NE 14 G 18 10.00 Overcast OVC026 50.5 42.1 73% 29.91 0.0
06 01:15 NE 13 G 22 10.00 Overcast OVC026 50.2 42.3 74% 29.89 0.0
06 00:55 NE 14 G 22 10.00 Light Drizzle OVC024 50.4 42.6 52.7 50.2 75% 29.89 0.0
06 00:35 NE 13 10.00 Overcast OVC020 50.4 42.8 75% 29.9 0.0
06 00:15 NE 14 G 20 10.00 Overcast OVC020 50.4 42.8 75% 29.91 0.0
05 23:55 NE 14 G 18 10.00 Overcast OVC020 50.4 42.8 75% 29.91 0.0
05 23:35 N 13 G 18 10.00 Overcast OVC020 50.4 42.8 75% 29.91 0.0
05 23:15 NE 10 G 23 10.00 Overcast OVC020 50.4 42.8 75% 29.89 0.0
05 22:55 N 18 G 23 10.00 Overcast OVC020 50.5 43.2 76% 29.88 0.0
05 22:35 N 20 G 25 10.00 Overcast OVC020 50.9 43 74% 29.89 0.0
05 22:15 N 10 10.00 Overcast OVC020 50.7 43 75% 29.89 0.0
05 21:55 N 18 10.00 Overcast OVC020 50.9 43.2 75% 29.88 0.0
05 21:35 N 9 G 18 10.00 Overcast OVC020 50.9 43.2 75% 29.87 0.0
05 21:15 N 14 G 18 10.00 Overcast OVC020 51.1 43.2 74% 29.86 0.0
05 20:55 N 16 G 20 10.00 Overcast OVC022 51.1 42.8 73% 29.84 0.0
05 20:35 N 13 G 22 10.00 Overcast OVC022 51.1 42.4 72% 29.83 0.0
05 20:15 NE 16 G 25 10.00 Overcast OVC022 51.3 42.3 71% 29.82 0.0
05 19:55 NE 21 G 29 10.00 Overcast and Breezy OVC024 51.4 42.3 71% 29.81 0.0
05 19:35 N 13 G 21 10.00 Overcast OVC024 52 42.8 71% 29.81 0.0
05 18:55 N 15 10.00 Overcast OVC024 52.7 42.8 60.4 52.7 69% 29.8 0.0
05 18:35 N 18 G 25 10.00 Overcast OVC024 53.1 42.8 68% 29.81 0.0
05 18:15 N 17 G 25 10.00 Overcast OVC022 53.6 43.7 69% 29.79 0.0
05 17:55 N 17 G 22 10.00 Overcast OVC022 53.8 44.6 71% 29.78 0.0
05 17:35 N 13 G 26 10.00 Overcast OVC020 54.5 44.8 70% 29.76 0.0
05 17:15 N 16 G 25 10.00 Overcast OVC020 54.1 45.5 73% 29.76 0.0
05 16:55 N 20 G 25 10.00 Overcast OVC018 54.1 46.4 75% 29.76 0.0
05 16:35 N 18 G 24 10.00 Overcast OVC018 54.9 47.3 76% 29.74 0.0
05 16:15 N 16 G 24 10.00 Overcast OVC018 55.9 48.2 75% 29.76 0.0
05 15:55 N 20 G 29 10.00 Overcast OVC016 55.8 48.4 76% 29.75 0.0
05 15:35 N 18 G 24 10.00 Overcast OVC016 56.1 48.7 76% 29.72 0.0
05 15:15 N 15 G 26 10.00 Overcast OVC016 56.5 49.5 77% 29.74 0.0
05 14:50 N 18 G 28 10.00 Overcast OVC014 57 50 78% 29.73 0.0
05 14:35 N 17 G 24 10.00 Overcast OVC014 57.2 50.4 78% 29.72 0.0
05 14:15 N 20 G 25 10.00 Overcast OVC014 57.4 51.4 81% 29.72 0.0
05 13:55 N 18 G 29 10.00 Overcast OVC014 57.6 51.3 80% 29.71 0.0
05 13:35 N 24 G 30 10.00 Overcast and Breezy OVC014 59.5 51.8 76% 29.7 0.0
05 13:15 N 20 G 26 10.00 Overcast OVC014 59.2 52.7 79% 29.7 0.0
05 12:55 N 21 G 28 10.00 Overcast and Breezy BKN014 OVC020 59.5 53.6 75.6 59.5 81% 29.7 0.0
05 12:15 N 20 G 25 10.00 Overcast BKN017 OVC023 62.2 56.5 82% 29.67 0.0
05 11:55 NE 12 G 18 10.00 Overcast SCT021 BKN041 OVC049 75.6 66.4 73% 77 29.65 0.0
05 11:35 S 12 10.00 Overcast SCT018 SCT025 OVC039 74.1 66 76% 29.64 0.0
05 11:10 SE 7 10.00 Overcast SCT019 BKN030 OVC048 73.4 66.6 79% 29.64 0.0
05 10:55 SE 9 10.00 Overcast SCT029 BKN033 OVC048 72.9 66 79% 29.63 0.0
05 10:35 SE 10 10.00 Overcast BKN029 OVC034 71.8 65.5 81% 29.63 0.0
05 10:15 SE 8 10.00 Overcast BKN029 OVC034 70.9 64.8 81% 29.63 0.0
05 09:55 SE 8 10.00 Overcast OVC027 70.2 63.9 81% 29.62 0.0
05 09:35 SE 8 10.00 Overcast OVC025 68.9 63.3 83% 29.62 0.0
05 09:15 E 9 10.00 Overcast OVC023 68.2 62.8 83% 29.63 0.0
05 08:55 E 10 10.00 Overcast OVC023 68 62.1 81% 29.63 0.0
05 08:35 E 10 10.00 Overcast OVC021 67.6 61.9 82% 29.63 0.0
05 08:15 E 9 10.00 Overcast OVC021 67.6 62.2 83% 29.63 0.0
05 07:55 E 8 10.00 Overcast OVC021 68 62.2 82% 29.63 0.0
05 07:35 E 8 10.00 Overcast OVC021 68 62.6 83% 29.63 0.0
05 07:15 E 9 10.00 Overcast OVC021 68.2 63.5 85% 29.61 0.0
05 06:55 E 8 10.00 Overcast OVC023 68.9 63.5 71.2 66.7 83% 29.61 0.0
05 06:35 E 8 10.00 Overcast OVC023 68.4 63.3 84% 29.59 0.0
05 06:15 E 9 10.00 Overcast OVC023 68 63.1 85% 29.58 0.0
05 05:55 E 7 10.00 Overcast OVC025 66.7 63.5 89% 29.58 0.0
05 05:15 E 7 10.00 Overcast OVC027 67.6 62.6 84% 29.57 0.0
05 04:55 E 7 10.00 Mostly Cloudy BKN029 BKN034 68.9 62.1 79% 29.57 0.0
05 04:35 SE 7 10.00 Mostly Cloudy BKN029 BKN034 69.1 61.9 78% 29.57 0.0
05 04:15 E 6 10.00 Mostly Cloudy BKN029 68.9 61.9 78% 29.58 0.0
05 03:55 SE 7 10.00 Mostly Cloudy BKN029 69.1 61.9 78% 29.58 0.0
05 03:35 E 5 10.00 Overcast OVC029 68.5 61.7 79% 29.59 0.0
05 03:15 NE 6 10.00 Overcast OVC029 68.9 61.2 76% 29.59 0.0
05 02:55 NE 5 10.00 Mostly Cloudy BKN029 70 61.3 74% 29.59 0.0
05 02:35 S 7 G 16 10.00 Fair CLR 71.2 61 70% 29.57 0.0
05 02:15 S 9 10.00 Fair CLR 70.9 60.8 71% 29.58 0.0
05 01:55 S 10 G 16 10.00 Fair CLR 70.9 60.8 71% 29.59 0.0
05 01:35 S 8 G 17 10.00 Fair CLR 70.2 60.3 71% 29.59 0.0
05 01:15 S 9 G 17 10.00 Fair CLR 70.2 59.9 70% 29.59 0.0
05 00:55 S 9 G 17 10.00 Fair CLR 69.8 59.4 76.3 69.8 70% 29.6 0.0
05 00:35 S 13 G 16 10.00 Thunderstorm in Vicinity CLR 69.8 59 69% 29.61 0.0
05 00:15 S 10 G 16 10.00 Fair CLR 70.3 58.6 67% 29.62 0.0
04 23:55 S 12 G 18 10.00 Fair CLR 70.5 58.1 65% 29.61 0.0
04 23:35 S 10 G 17 10.00 Fair CLR 70.5 57.9 65% 29.61 0.0
04 23:15 SE 12 10.00 Fair CLR 70.9 57.4 63% 29.62 0.0
Date Time (cdt) Wind (mph) Vis. (mi.) Weather Sky Cond. Air Dwpt Max. Min. Relative Humidity Wind Chill (°F) Heat Index (°F) altimeter (in) sea level (mb) 1 hr 3 hr 6 hr
6 hour
Temperature (ºF) Pressure Precipitation (in)